sensor_id;sensor_type;location;lat;lon;timestamp;pressure;altitude;pressure_sealevel;temperature;humidity
4199;BME280;2113;50.946;14.610;2022-08-01T00:00:54;96950.16;;;19.26;64.17
4199;BME280;2113;50.946;14.610;2022-08-01T00:03:22;96947.56;;;19.38;63.50
4199;BME280;2113;50.946;14.610;2022-08-01T00:05:50;96952.06;;;19.60;63.50
4199;BME280;2113;50.946;14.610;2022-08-01T00:08:18;96938.75;;;19.61;63.76
4199;BME280;2113;50.946;14.610;2022-08-01T00:10:46;96943.34;;;19.70;63.10
4199;BME280;2113;50.946;14.610;2022-08-01T00:13:15;96941.47;;;19.72;64.01
4199;BME280;2113;50.946;14.610;2022-08-01T00:15:43;96935.94;;;19.75;64.00
4199;BME280;2113;50.946;14.610;2022-08-01T00:18:20;96930.13;;;19.59;63.57
4199;BME280;2113;50.946;14.610;2022-08-01T00:20:48;96932.53;;;19.62;63.06
4199;BME280;2113;50.946;14.610;2022-08-01T00:23:16;96932.06;;;19.68;61.79
4199;BME280;2113;50.946;14.610;2022-08-01T00:25:44;96933.81;;;19.81;62.24
4199;BME280;2113;50.946;14.610;2022-08-01T00:28:12;96929.75;;;19.88;62.10
4199;BME280;2113;50.946;14.610;2022-08-01T00:30:41;96920.13;;;19.87;62.05
4199;BME280;2113;50.946;14.610;2022-08-01T00:33:10;96924.44;;;19.77;62.76
4199;BME280;2113;50.946;14.610;2022-08-01T00:35:39;96920.97;;;19.76;63.41
4199;BME280;2113;50.946;14.610;2022-08-01T00:38:06;96919.91;;;19.79;63.00
4199;BME280;2113;50.946;14.610;2022-08-01T00:40:34;96905.16;;;19.76;61.55
4199;BME280;2113;50.946;14.610;2022-08-01T00:43:03;96906.63;;;19.91;62.36
4199;BME280;2113;50.946;14.610;2022-08-01T00:45:31;96899.75;;;19.89;59.83
4199;BME280;2113;50.946;14.610;2022-08-01T00:48:00;96900.84;;;19.86;61.90
4199;BME280;2113;50.946;14.610;2022-08-01T00:50:28;96897.38;;;19.86;61.73
4199;BME280;2113;50.946;14.610;2022-08-01T00:52:57;96902.81;;;19.71;63.19
4199;BME280;2113;50.946;14.610;2022-08-01T00:55:26;96899.47;;;19.69;63.00
4199;BME280;2113;50.946;14.610;2022-08-01T00:57:55;96892.81;;;19.52;62.94
4199;BME280;2113;50.946;14.610;2022-08-01T01:00:33;96894.53;;;19.53;62.03
4199;BME280;2113;50.946;14.610;2022-08-01T01:03:22;96891.81;;;19.66;62.05
4199;BME280;2113;50.946;14.610;2022-08-01T01:06:17;96906.53;;;19.69;63.60
4199;BME280;2113;50.946;14.610;2022-08-01T01:09:00;96895.34;;;19.54;60.93
4199;BME280;2113;50.946;14.610;2022-08-01T01:11:37;96901.84;;;19.61;60.65
4199;BME280;2113;50.946;14.610;2022-08-01T01:14:10;96891.53;;;19.69;60.78
4199;BME280;2113;50.946;14.610;2022-08-01T01:16:42;96898.84;;;19.66;60.56
4199;BME280;2113;50.946;14.610;2022-08-01T01:19:18;96901.63;;;19.64;60.28
4199;BME280;2113;50.946;14.610;2022-08-01T01:22:06;96900.44;;;19.68;60.28
4199;BME280;2113;50.946;14.610;2022-08-01T01:24:43;96899.72;;;19.66;60.04
4199;BME280;2113;50.946;14.610;2022-08-01T01:27:18;96908.94;;;19.61;59.54
4199;BME280;2113;50.946;14.610;2022-08-01T01:29:52;96904.22;;;19.53;59.66
4199;BME280;2113;50.946;14.610;2022-08-01T01:32:30;96907.00;;;19.63;59.96
4199;BME280;2113;50.946;14.610;2022-08-01T01:35:05;96907.28;;;19.35;60.52
4199;BME280;2113;50.946;14.610;2022-08-01T01:37:35;96911.09;;;19.31;61.21
4199;BME280;2113;50.946;14.610;2022-08-01T01:40:07;96907.28;;;19.35;61.08
4199;BME280;2113;50.946;14.610;2022-08-01T01:42:38;96903.69;;;19.36;61.47
4199;BME280;2113;50.946;14.610;2022-08-01T01:45:09;96905.66;;;19.22;61.88
4199;BME280;2113;50.946;14.610;2022-08-01T01:47:38;96904.16;;;19.30;61.87
4199;BME280;2113;50.946;14.610;2022-08-01T01:50:08;96900.28;;;19.23;61.48
4199;BME280;2113;50.946;14.610;2022-08-01T01:52:38;96894.28;;;19.21;61.72
4199;BME280;2113;50.946;14.610;2022-08-01T01:55:08;96899.88;;;19.05;62.45
4199;BME280;2113;50.946;14.610;2022-08-01T01:57:39;96894.47;;;18.83;63.27
4199;BME280;2113;50.946;14.610;2022-08-01T02:00:10;96892.13;;;18.78;62.47
4199;BME280;2113;50.946;14.610;2022-08-01T02:02:40;96892.47;;;18.86;62.25
4199;BME280;2113;50.946;14.610;2022-08-01T02:05:11;96886.69;;;18.81;62.45
4199;BME280;2113;50.946;14.610;2022-08-01T02:07:40;96895.94;;;18.87;62.63
4199;BME280;2113;50.946;14.610;2022-08-01T02:10:10;96891.50;;;18.87;62.46
4199;BME280;2113;50.946;14.610;2022-08-01T02:12:43;96894.59;;;19.05;61.41
4199;BME280;2113;50.946;14.610;2022-08-01T02:15:14;96901.31;;;18.85;62.62
4199;BME280;2113;50.946;14.610;2022-08-01T02:17:45;96903.06;;;18.97;62.20
4199;BME280;2113;50.946;14.610;2022-08-01T02:20:16;96900.59;;;18.83;62.22
4199;BME280;2113;50.946;14.610;2022-08-01T02:22:47;96903.50;;;18.91;62.15
4199;BME280;2113;50.946;14.610;2022-08-01T02:25:22;96908.81;;;18.78;62.17
4199;BME280;2113;50.946;14.610;2022-08-01T02:27:56;96897.06;;;18.46;62.90
4199;BME280;2113;50.946;14.610;2022-08-01T02:30:32;96905.91;;;18.57;62.98
4199;BME280;2113;50.946;14.610;2022-08-01T02:33:05;96900.22;;;18.51;63.03
4199;BME280;2113;50.946;14.610;2022-08-01T02:35:44;96894.34;;;18.47;63.35
4199;BME280;2113;50.946;14.610;2022-08-01T02:38:35;96891.31;;;18.53;62.82
4199;BME280;2113;50.946;14.610;2022-08-01T02:41:06;96891.13;;;18.68;62.56
4199;BME280;2113;50.946;14.610;2022-08-01T02:43:37;96894.22;;;18.62;63.18
4199;BME280;2113;50.946;14.610;2022-08-01T02:46:08;96892.06;;;18.43;63.42
4199;BME280;2113;50.946;14.610;2022-08-01T02:48:42;96898.50;;;18.13;64.73
4199;BME280;2113;50.946;14.610;2022-08-01T02:51:11;96895.38;;;18.08;64.98
4199;BME280;2113;50.946;14.610;2022-08-01T02:53:41;96885.78;;;18.07;64.95
4199;BME280;2113;50.946;14.610;2022-08-01T02:56:11;96896.53;;;17.91;64.99
4199;BME280;2113;50.946;14.610;2022-08-01T02:58:41;96898.22;;;17.79;65.49
4199;BME280;2113;50.946;14.610;2022-08-01T03:01:13;96891.16;;;17.79;65.88
4199;BME280;2113;50.946;14.610;2022-08-01T03:03:45;96894.84;;;17.77;66.17
4199;BME280;2113;50.946;14.610;2022-08-01T03:06:14;96898.31;;;17.77;66.53
4199;BME280;2113;50.946;14.610;2022-08-01T03:08:44;96896.66;;;17.89;65.91
4199;BME280;2113;50.946;14.610;2022-08-01T03:11:13;96895.28;;;17.96;66.07
4199;BME280;2113;50.946;14.610;2022-08-01T03:13:43;96893.38;;;17.98;66.12
4199;BME280;2113;50.946;14.610;2022-08-01T03:16:15;96905.78;;;18.09;66.40
4199;BME280;2113;50.946;14.610;2022-08-01T03:18:45;96904.94;;;18.22;65.92
4199;BME280;2113;50.946;14.610;2022-08-01T03:21:14;96908.50;;;18.33;66.20
4199;BME280;2113;50.946;14.610;2022-08-01T03:23:42;96904.19;;;18.32;66.30
4199;BME280;2113;50.946;14.610;2022-08-01T03:26:11;96910.78;;;18.38;65.89
4199;BME280;2113;50.946;14.610;2022-08-01T03:28:41;96918.47;;;18.41;65.53
4199;BME280;2113;50.946;14.610;2022-08-01T03:31:10;96909.72;;;18.53;65.12
4199;BME280;2113;50.946;14.610;2022-08-01T03:34:07;96917.34;;;18.82;64.31
4199;BME280;2113;50.946;14.610;2022-08-01T03:36:43;96913.09;;;18.92;62.83
4199;BME280;2113;50.946;14.610;2022-08-01T03:39:16;96915.72;;;18.92;62.76
4199;BME280;2113;50.946;14.610;2022-08-01T03:41:51;96908.53;;;18.94;63.62
4199;BME280;2113;50.946;14.610;2022-08-01T03:44:25;96914.72;;;18.82;63.94
4199;BME280;2113;50.946;14.610;2022-08-01T03:47:00;96909.53;;;19.05;63.99
4199;BME280;2113;50.946;14.610;2022-08-01T03:49:32;96912.63;;;19.23;64.17
4199;BME280;2113;50.946;14.610;2022-08-01T03:52:02;96918.47;;;19.15;63.89
4199;BME280;2113;50.946;14.610;2022-08-01T03:54:35;96919.03;;;19.07;63.91
4199;BME280;2113;50.946;14.610;2022-08-01T03:57:04;96916.09;;;19.23;63.32
4199;BME280;2113;50.946;14.610;2022-08-01T03:59:34;96912.31;;;19.39;63.67
4199;BME280;2113;50.946;14.610;2022-08-01T04:02:04;96912.56;;;19.47;63.80
4199;BME280;2113;50.946;14.610;2022-08-01T04:04:35;96914.50;;;19.45;64.25
4199;BME280;2113;50.946;14.610;2022-08-01T04:07:03;96921.47;;;19.46;63.21
4199;BME280;2113;50.946;14.610;2022-08-01T04:09:33;96917.16;;;19.56;62.10
4199;BME280;2113;50.946;14.610;2022-08-01T04:12:02;96916.81;;;19.49;61.13
4199;BME280;2113;50.946;14.610;2022-08-01T04:14:38;96919.81;;;19.56;61.55
4199;BME280;2113;50.946;14.610;2022-08-01T04:17:06;96926.31;;;19.63;61.71
4199;BME280;2113;50.946;14.610;2022-08-01T04:19:35;96929.19;;;19.71;61.83
4199;BME280;2113;50.946;14.610;2022-08-01T04:22:04;96930.28;;;19.69;62.63
4199;BME280;2113;50.946;14.610;2022-08-01T04:24:35;96931.56;;;19.63;62.91
4199;BME280;2113;50.946;14.610;2022-08-01T04:27:07;96929.69;;;19.41;61.70
4199;BME280;2113;50.946;14.610;2022-08-01T04:29:37;96937.94;;;19.61;61.44
4199;BME280;2113;50.946;14.610;2022-08-01T04:32:08;96930.81;;;19.50;62.18
4199;BME280;2113;50.946;14.610;2022-08-01T04:34:43;96930.44;;;19.43;61.29
4199;BME280;2113;50.946;14.610;2022-08-01T04:37:15;96933.44;;;19.50;62.60
4199;BME280;2113;50.946;14.610;2022-08-01T04:39:45;96923.19;;;19.69;62.70
4199;BME280;2113;50.946;14.610;2022-08-01T04:42:17;96933.97;;;19.55;64.36
4199;BME280;2113;50.946;14.610;2022-08-01T04:44:56;96936.41;;;19.34;65.27
4199;BME280;2113;50.946;14.610;2022-08-01T04:47:25;96930.50;;;19.06;65.49
4199;BME280;2113;50.946;14.610;2022-08-01T04:49:55;96925.09;;;19.21;64.92
4199;BME280;2113;50.946;14.610;2022-08-01T04:52:32;96932.50;;;19.51;64.25
4199;BME280;2113;50.946;14.610;2022-08-01T04:55:00;96930.16;;;19.70;63.25
4199;BME280;2113;50.946;14.610;2022-08-01T04:57:29;96924.97;;;19.93;63.60
4199;BME280;2113;50.946;14.610;2022-08-01T04:59:57;96930.22;;;20.04;63.63
4199;BME280;2113;50.946;14.610;2022-08-01T05:02:25;96925.22;;;20.01;65.12
4199;BME280;2113;50.946;14.610;2022-08-01T05:04:57;96924.94;;;20.04;65.50
4199;BME280;2113;50.946;14.610;2022-08-01T05:07:25;96921.59;;;20.02;65.80
4199;BME280;2113;50.946;14.610;2022-08-01T05:09:54;96915.38;;;20.14;64.18
4199;BME280;2113;50.946;14.610;2022-08-01T05:12:21;96915.13;;;20.18;63.67
4199;BME280;2113;50.946;14.610;2022-08-01T05:14:49;96917.06;;;20.38;63.57
4199;BME280;2113;50.946;14.610;2022-08-01T05:17:17;96913.09;;;20.55;61.98
4199;BME280;2113;50.946;14.610;2022-08-01T05:19:45;96918.78;;;20.94;62.55
4199;BME280;2113;50.946;14.610;2022-08-01T05:22:15;96914.56;;;21.03;62.95
4199;BME280;2113;50.946;14.610;2022-08-01T05:24:43;96915.97;;;21.18;62.03
4199;BME280;2113;50.946;14.610;2022-08-01T05:27:14;96922.31;;;21.27;61.97
4199;BME280;2113;50.946;14.610;2022-08-01T05:29:44;96920.53;;;21.16;62.94
4199;BME280;2113;50.946;14.610;2022-08-01T05:32:13;96915.22;;;21.27;63.36
4199;BME280;2113;50.946;14.610;2022-08-01T05:34:42;96915.53;;;21.34;62.73
4199;BME280;2113;50.946;14.610;2022-08-01T05:37:10;96921.28;;;21.07;62.84
4199;BME280;2113;50.946;14.610;2022-08-01T05:39:39;96919.09;;;21.12;63.18
4199;BME280;2113;50.946;14.610;2022-08-01T05:42:07;96914.47;;;20.93;64.68
4199;BME280;2113;50.946;14.610;2022-08-01T05:44:35;96919.38;;;21.30;63.39
4199;BME280;2113;50.946;14.610;2022-08-01T05:47:03;96920.69;;;21.36;61.95
4199;BME280;2113;50.946;14.610;2022-08-01T05:49:31;96931.31;;;21.24;60.64
4199;BME280;2113;50.946;14.610;2022-08-01T05:51:59;96923.03;;;21.61;60.51
4199;BME280;2113;50.946;14.610;2022-08-01T05:54:29;96922.75;;;21.64;59.25
4199;BME280;2113;50.946;14.610;2022-08-01T05:56:58;96921.97;;;21.74;59.58
4199;BME280;2113;50.946;14.610;2022-08-01T05:59:28;96923.25;;;21.58;58.45
4199;BME280;2113;50.946;14.610;2022-08-01T06:01:56;96924.69;;;21.30;58.14
4199;BME280;2113;50.946;14.610;2022-08-01T06:04:25;96921.31;;;21.28;58.80
4199;BME280;2113;50.946;14.610;2022-08-01T06:06:52;96926.97;;;21.02;59.54
4199;BME280;2113;50.946;14.610;2022-08-01T06:09:21;96927.38;;;20.75;58.94
4199;BME280;2113;50.946;14.610;2022-08-01T06:11:49;96928.31;;;20.85;59.50
4199;BME280;2113;50.946;14.610;2022-08-01T06:14:18;96928.28;;;20.97;59.37
4199;BME280;2113;50.946;14.610;2022-08-01T06:16:46;96927.78;;;21.67;57.28
4199;BME280;2113;50.946;14.610;2022-08-01T06:19:14;96937.66;;;21.65;56.48
4199;BME280;2113;50.946;14.610;2022-08-01T06:21:42;96941.31;;;21.95;56.09
4199;BME280;2113;50.946;14.610;2022-08-01T06:24:10;96945.47;;;22.30;55.75
4199;BME280;2113;50.946;14.610;2022-08-01T06:26:38;96943.78;;;22.29;54.88
4199;BME280;2113;50.946;14.610;2022-08-01T06:29:06;96937.84;;;21.95;55.78
4199;BME280;2113;50.946;14.610;2022-08-01T06:31:37;96941.25;;;21.64;56.52
4199;BME280;2113;50.946;14.610;2022-08-01T06:34:05;96947.13;;;21.03;56.17
4199;BME280;2113;50.946;14.610;2022-08-01T06:36:33;96951.47;;;21.37;55.74
4199;BME280;2113;50.946;14.610;2022-08-01T06:39:01;96951.09;;;20.98;56.26
4199;BME280;2113;50.946;14.610;2022-08-01T06:41:29;96953.66;;;21.64;55.64
4199;BME280;2113;50.946;14.610;2022-08-01T06:43:57;96949.84;;;21.78;55.26
4199;BME280;2113;50.946;14.610;2022-08-01T06:46:29;96954.88;;;21.60;55.31
4199;BME280;2113;50.946;14.610;2022-08-01T06:48:59;96957.47;;;21.50;55.54
4199;BME280;2113;50.946;14.610;2022-08-01T06:51:27;96959.00;;;21.41;56.09
4199;BME280;2113;50.946;14.610;2022-08-01T06:53:55;96958.34;;;21.28;56.65
4199;BME280;2113;50.946;14.610;2022-08-01T06:56:23;96958.25;;;21.18;57.33
4199;BME280;2113;50.946;14.610;2022-08-01T06:58:51;96957.34;;;21.40;57.01
4199;BME280;2113;50.946;14.610;2022-08-01T07:01:19;96961.19;;;21.68;56.98
4199;BME280;2113;50.946;14.610;2022-08-01T07:03:47;96954.34;;;21.45;56.93
4199;BME280;2113;50.946;14.610;2022-08-01T07:06:23;96958.19;;;21.41;56.78
4199;BME280;2113;50.946;14.610;2022-08-01T07:08:52;96953.75;;;22.46;54.37
4199;BME280;2113;50.946;14.610;2022-08-01T07:11:21;96948.66;;;25.33;46.19
4199;BME280;2113;50.946;14.610;2022-08-01T07:13:49;96952.03;;;26.23;44.57
4199;BME280;2113;50.946;14.610;2022-08-01T07:16:17;96950.09;;;26.60;44.51
4199;BME280;2113;50.946;14.610;2022-08-01T07:18:45;96944.72;;;27.69;42.18
4199;BME280;2113;50.946;14.610;2022-08-01T07:21:13;96940.19;;;29.69;37.95
4199;BME280;2113;50.946;14.610;2022-08-01T07:24:04;96954.06;;;27.57;41.56
4199;BME280;2113;50.946;14.610;2022-08-01T07:26:41;96955.22;;;25.83;46.97
4199;BME280;2113;50.946;14.610;2022-08-01T07:29:22;96949.69;;;24.76;50.09
4199;BME280;2113;50.946;14.610;2022-08-01T07:31:52;96955.44;;;24.34;50.56
4199;BME280;2113;50.946;14.610;2022-08-01T07:34:22;96957.78;;;25.48;47.89
4199;BME280;2113;50.946;14.610;2022-08-01T07:36:50;96936.66;;;31.26;36.03
4199;BME280;2113;50.946;14.610;2022-08-01T07:39:20;96936.97;;;32.93;33.39
4199;BME280;2113;50.946;14.610;2022-08-01T07:41:48;96947.66;;;30.79;35.88
4199;BME280;2113;50.946;14.610;2022-08-01T07:44:34;96941.75;;;30.39;37.15
4199;BME280;2113;50.946;14.610;2022-08-01T07:47:02;96941.56;;;31.00;36.94
4199;BME280;2113;50.946;14.610;2022-08-01T07:49:30;96951.47;;;29.02;39.92
4199;BME280;2113;50.946;14.610;2022-08-01T07:52:05;96946.19;;;29.71;39.18
4199;BME280;2113;50.946;14.610;2022-08-01T07:54:35;96948.34;;;28.42;42.16
4199;BME280;2113;50.946;14.610;2022-08-01T07:57:03;96955.31;;;26.35;45.98
4199;BME280;2113;50.946;14.610;2022-08-01T07:59:31;96964.81;;;26.37;46.81
4199;BME280;2113;50.946;14.610;2022-08-01T08:01:59;96959.09;;;26.93;44.93
4199;BME280;2113;50.946;14.610;2022-08-01T08:04:28;96973.31;;;26.15;47.67
4199;BME280;2113;50.946;14.610;2022-08-01T08:06:56;96971.78;;;24.77;50.83
4199;BME280;2113;50.946;14.610;2022-08-01T08:09:24;96975.38;;;23.52;54.10
4199;BME280;2113;50.946;14.610;2022-08-01T08:11:53;96975.06;;;22.76;56.53
4199;BME280;2113;50.946;14.610;2022-08-01T08:14:21;96978.50;;;22.66;57.40
4199;BME280;2113;50.946;14.610;2022-08-01T08:16:58;96977.63;;;22.25;58.69
4199;BME280;2113;50.946;14.610;2022-08-01T08:19:28;96971.34;;;22.05;58.81
4199;BME280;2113;50.946;14.610;2022-08-01T08:22:05;96984.59;;;22.26;59.17
4199;BME280;2113;50.946;14.610;2022-08-01T08:24:34;96982.13;;;22.35;59.37
4199;BME280;2113;50.946;14.610;2022-08-01T08:27:13;96986.84;;;22.62;58.41
4199;BME280;2113;50.946;14.610;2022-08-01T08:29:41;96986.97;;;22.60;57.80
4199;BME280;2113;50.946;14.610;2022-08-01T08:32:11;96993.19;;;22.40;58.82
4199;BME280;2113;50.946;14.610;2022-08-01T08:34:40;96995.25;;;22.36;59.34
4199;BME280;2113;50.946;14.610;2022-08-01T08:37:08;97001.31;;;22.06;60.62
4199;BME280;2113;50.946;14.610;2022-08-01T08:39:37;96994.75;;;22.93;58.27
4199;BME280;2113;50.946;14.610;2022-08-01T08:42:09;96990.63;;;24.46;54.15
4199;BME280;2113;50.946;14.610;2022-08-01T08:44:40;96984.25;;;25.32;52.40
4199;BME280;2113;50.946;14.610;2022-08-01T08:47:13;96985.72;;;24.89;52.62
4199;BME280;2113;50.946;14.610;2022-08-01T08:49:47;96986.25;;;27.47;47.33
4199;BME280;2113;50.946;14.610;2022-08-01T08:52:17;96990.22;;;26.06;48.75
4199;BME280;2113;50.946;14.610;2022-08-01T08:54:48;96999.09;;;24.69;53.09
4199;BME280;2113;50.946;14.610;2022-08-01T08:57:18;96990.50;;;25.58;50.45
4199;BME280;2113;50.946;14.610;2022-08-01T08:59:49;97000.91;;;24.21;54.93
4199;BME280;2113;50.946;14.610;2022-08-01T09:02:18;97013.78;;;23.68;56.38
4199;BME280;2113;50.946;14.610;2022-08-01T09:04:47;97010.22;;;23.18;57.66
4199;BME280;2113;50.946;14.610;2022-08-01T09:07:16;97020.38;;;23.83;56.44
4199;BME280;2113;50.946;14.610;2022-08-01T09:09:44;97012.63;;;24.19;55.64
4199;BME280;2113;50.946;14.610;2022-08-01T09:12:16;97014.44;;;24.28;54.77
4199;BME280;2113;50.946;14.610;2022-08-01T09:14:45;97019.34;;;24.03;56.05
4199;BME280;2113;50.946;14.610;2022-08-01T09:17:14;97023.06;;;23.33;57.30
4199;BME280;2113;50.946;14.610;2022-08-01T09:19:44;97022.94;;;23.24;57.62
4199;BME280;2113;50.946;14.610;2022-08-01T09:22:16;97016.69;;;23.55;56.98
4199;BME280;2113;50.946;14.610;2022-08-01T09:24:57;97021.34;;;23.82;55.31
4199;BME280;2113;50.946;14.610;2022-08-01T09:27:26;97020.03;;;24.35;54.74
4199;BME280;2113;50.946;14.610;2022-08-01T09:29:54;97015.09;;;24.87;54.03
4199;BME280;2113;50.946;14.610;2022-08-01T09:32:31;97013.53;;;24.94;53.11
4199;BME280;2113;50.946;14.610;2022-08-01T09:35:25;97008.34;;;24.93;51.98
4199;BME280;2113;50.946;14.610;2022-08-01T09:38:15;97009.09;;;25.13;51.68
4199;BME280;2113;50.946;14.610;2022-08-01T09:40:47;97006.31;;;28.58;44.96
4199;BME280;2113;50.946;14.610;2022-08-01T09:43:17;97006.63;;;27.40;46.46
4199;BME280;2113;50.946;14.610;2022-08-01T09:45:46;97004.56;;;27.26;46.35
4199;BME280;2113;50.946;14.610;2022-08-01T09:48:20;96998.66;;;29.03;44.21
4199;BME280;2113;50.946;14.610;2022-08-01T09:50:57;96998.66;;;31.82;36.96
4199;BME280;2113;50.946;14.610;2022-08-01T09:53:43;97001.34;;;28.06;44.07
4199;BME280;2113;50.946;14.610;2022-08-01T09:56:18;97000.97;;;27.60;47.16
4199;BME280;2113;50.946;14.610;2022-08-01T09:58:54;97010.66;;;28.51;43.84
4199;BME280;2113;50.946;14.610;2022-08-01T10:01:28;97012.69;;;27.24;46.56
4199;BME280;2113;50.946;14.610;2022-08-01T10:04:08;97017.34;;;26.71;48.25
4199;BME280;2113;50.946;14.610;2022-08-01T10:06:38;97026.31;;;25.82;50.48
4199;BME280;2113;50.946;14.610;2022-08-01T10:09:07;97017.00;;;25.50;51.74
4199;BME280;2113;50.946;14.610;2022-08-01T10:11:36;97020.88;;;24.83;52.83
4199;BME280;2113;50.946;14.610;2022-08-01T10:14:07;97021.97;;;24.33;54.15
4199;BME280;2113;50.946;14.610;2022-08-01T10:16:36;97032.47;;;24.24;54.45
4199;BME280;2113;50.946;14.610;2022-08-01T10:19:07;97029.25;;;24.40;54.49
4199;BME280;2113;50.946;14.610;2022-08-01T10:21:41;97044.09;;;24.14;55.41
4199;BME280;2113;50.946;14.610;2022-08-01T10:24:29;97037.06;;;24.42;54.31
4199;BME280;2113;50.946;14.610;2022-08-01T10:27:02;97035.69;;;24.28;54.41
4199;BME280;2113;50.946;14.610;2022-08-01T10:29:37;97041.25;;;24.45;55.10
4199;BME280;2113;50.946;14.610;2022-08-01T10:32:28;97041.16;;;23.97;54.93
4199;BME280;2113;50.946;14.610;2022-08-01T10:34:58;97035.63;;;24.67;54.11
4199;BME280;2113;50.946;14.610;2022-08-01T10:37:33;97031.31;;;24.56;53.80
4199;BME280;2113;50.946;14.610;2022-08-01T10:40:17;97030.94;;;25.98;50.59
4199;BME280;2113;50.946;14.610;2022-08-01T10:43:02;97026.81;;;25.50;51.48
4199;BME280;2113;50.946;14.610;2022-08-01T10:45:30;97026.63;;;24.11;55.07
4199;BME280;2113;50.946;14.610;2022-08-01T10:48:06;97028.16;;;24.23;55.56
4199;BME280;2113;50.946;14.610;2022-08-01T10:50:42;97029.94;;;24.90;55.21
4199;BME280;2113;50.946;14.610;2022-08-01T10:53:16;97021.09;;;25.27;52.97
4199;BME280;2113;50.946;14.610;2022-08-01T10:55:58;97015.84;;;25.89;52.17
4199;BME280;2113;50.946;14.610;2022-08-01T10:58:30;97011.38;;;26.07;51.28
4199;BME280;2113;50.946;14.610;2022-08-01T11:01:21;97014.38;;;26.30;50.62
4199;BME280;2113;50.946;14.610;2022-08-01T11:04:07;97018.09;;;26.37;49.45
4199;BME280;2113;50.946;14.610;2022-08-01T11:07:05;97013.69;;;28.23;46.19
4199;BME280;2113;50.946;14.610;2022-08-01T11:09:41;97002.97;;;29.43;43.23
4199;BME280;2113;50.946;14.610;2022-08-01T11:12:18;97015.47;;;30.20;42.86
4199;BME280;2113;50.946;14.610;2022-08-01T11:15:21;97014.84;;;29.72;41.90
4199;BME280;2113;50.946;14.610;2022-08-01T11:18:01;97006.03;;;30.33;40.14
4199;BME280;2113;50.946;14.610;2022-08-01T11:20:32;97010.44;;;28.77;41.66
4199;BME280;2113;50.946;14.610;2022-08-01T11:23:18;97009.13;;;26.99;45.87
4199;BME280;2113;50.946;14.610;2022-08-01T11:26:19;97012.78;;;27.49;46.30
4199;BME280;2113;50.946;14.610;2022-08-01T11:29:13;97012.84;;;26.02;49.37
4199;BME280;2113;50.946;14.610;2022-08-01T11:31:50;97021.50;;;25.32;50.75
4199;BME280;2113;50.946;14.610;2022-08-01T11:34:19;97010.78;;;25.59;50.54
4199;BME280;2113;50.946;14.610;2022-08-01T11:36:47;97009.41;;;26.96;47.51
4199;BME280;2113;50.946;14.610;2022-08-01T11:39:27;97013.03;;;27.88;45.34
4199;BME280;2113;50.946;14.610;2022-08-01T11:42:17;97009.69;;;28.27;45.00
4199;BME280;2113;50.946;14.610;2022-08-01T11:44:50;97014.69;;;28.55;43.31
4199;BME280;2113;50.946;14.610;2022-08-01T11:47:18;97010.31;;;28.54;43.45
4199;BME280;2113;50.946;14.610;2022-08-01T11:50:30;97014.53;;;28.24;43.38
4199;BME280;2113;50.946;14.610;2022-08-01T11:52:59;97015.75;;;26.87;46.51
4199;BME280;2113;50.946;14.610;2022-08-01T11:55:29;97009.69;;;26.76;46.71
4199;BME280;2113;50.946;14.610;2022-08-01T11:58:02;97008.84;;;26.76;47.41
4199;BME280;2113;50.946;14.610;2022-08-01T12:00:30;97000.63;;;27.46;47.20
4199;BME280;2113;50.946;14.610;2022-08-01T12:03:00;97003.97;;;28.47;43.83
4199;BME280;2113;50.946;14.610;2022-08-01T12:05:32;97011.97;;;27.40;45.46
4199;BME280;2113;50.946;14.610;2022-08-01T12:08:03;97012.56;;;27.26;46.38
4199;BME280;2113;50.946;14.610;2022-08-01T12:10:34;96995.78;;;27.07;46.77
4199;BME280;2113;50.946;14.610;2022-08-01T12:13:15;97001.66;;;27.11;46.95
4199;BME280;2113;50.946;14.610;2022-08-01T12:15:45;97002.16;;;27.14;46.31
4199;BME280;2113;50.946;14.610;2022-08-01T12:18:18;96993.69;;;28.11;44.72
4199;BME280;2113;50.946;14.610;2022-08-01T12:20:46;97006.38;;;27.92;44.92
4199;BME280;2113;50.946;14.610;2022-08-01T12:23:23;97003.00;;;28.40;43.80
4199;BME280;2113;50.946;14.610;2022-08-01T12:25:53;97000.91;;;27.27;45.78
4199;BME280;2113;50.946;14.610;2022-08-01T12:28:21;96993.22;;;27.32;45.92
4199;BME280;2113;50.946;14.610;2022-08-01T12:30:50;96996.75;;;27.41;46.46
4199;BME280;2113;50.946;14.610;2022-08-01T12:33:20;96997.56;;;27.25;47.24
4199;BME280;2113;50.946;14.610;2022-08-01T12:35:49;96996.16;;;27.21;46.62
4199;BME280;2113;50.946;14.610;2022-08-01T12:38:20;96995.47;;;26.42;48.35
4199;BME280;2113;50.946;14.610;2022-08-01T12:40:50;96994.94;;;26.12;48.75
4199;BME280;2113;50.946;14.610;2022-08-01T12:43:22;96994.81;;;27.17;47.14
4199;BME280;2113;50.946;14.610;2022-08-01T12:45:56;97004.97;;;26.62;46.56
4199;BME280;2113;50.946;14.610;2022-08-01T12:48:26;97003.72;;;26.56;48.38
4199;BME280;2113;50.946;14.610;2022-08-01T12:50:56;97002.88;;;26.04;48.96
4199;BME280;2113;50.946;14.610;2022-08-01T12:53:27;97001.44;;;26.35;48.78
4199;BME280;2113;50.946;14.610;2022-08-01T12:56:07;97008.72;;;25.71;49.79
4199;BME280;2113;50.946;14.610;2022-08-01T12:58:38;97015.44;;;25.30;51.73
4199;BME280;2113;50.946;14.610;2022-08-01T13:01:08;97019.50;;;24.78;52.54
4199;BME280;2113;50.946;14.610;2022-08-01T13:03:37;97024.03;;;25.24;52.08
4199;BME280;2113;50.946;14.610;2022-08-01T13:06:15;97023.13;;;25.61;51.72
4199;BME280;2113;50.946;14.610;2022-08-01T13:08:44;97023.78;;;25.81;50.35
4199;BME280;2113;50.946;14.610;2022-08-01T13:11:14;97023.25;;;25.59;51.66
4199;BME280;2113;50.946;14.610;2022-08-01T13:13:47;97029.34;;;25.87;49.84
4199;BME280;2113;50.946;14.610;2022-08-01T13:16:17;97024.50;;;26.27;49.41
4199;BME280;2113;50.946;14.610;2022-08-01T13:19:04;97035.41;;;26.33;49.46
4199;BME280;2113;50.946;14.610;2022-08-01T13:21:33;97033.75;;;25.96;50.76
4199;BME280;2113;50.946;14.610;2022-08-01T13:24:25;97042.75;;;25.95;49.57
4199;BME280;2113;50.946;14.610;2022-08-01T13:26:55;97045.31;;;25.51;50.20
4199;BME280;2113;50.946;14.610;2022-08-01T13:29:31;97045.03;;;24.89;51.63
4199;BME280;2113;50.946;14.610;2022-08-01T13:32:01;97045.59;;;24.93;51.99
4199;BME280;2113;50.946;14.610;2022-08-01T13:35:04;97044.81;;;24.83;51.91
4199;BME280;2113;50.946;14.610;2022-08-01T13:37:34;97041.84;;;25.13;51.50